Time;durP1;ratioP1;P1;durP2;ratioP2;P2;SDS_P1;SDS_P2;PMS_P1;PMS_P2;Temp;Humidity;BMP_temperature;BMP_pressure;BME280_temperature;BME280_humidity;BME280_pressure;Samples;Min_cycle;Max_cycle;Signal;HPM_P1;HPM_P2
2020/12/21 00:00:29;;;;;;;38.08;15.30;;;;;;;3.60;100.00;98756.16;5067817;28;20070;-81
2020/12/21 00:02:55;;;;;;;30.88;16.35;;;;;;;3.57;100.00;98746.47;5051200;28;20136;-81
2020/12/21 00:05:20;;;;;;;28.27;14.23;;;;;;;3.59;100.00;98755.28;5043377;28;20025;-81
2020/12/21 00:07:46;;;;;;;34.55;14.18;;;;;;;3.59;100.00;98755.28;5043268;28;20073;-81
2020/12/21 00:10:11;;;;;;;36.83;16.67;;;;;;;3.57;100.00;98746.47;5035451;28;20419;-81
2020/12/21 00:12:38;;;;;;;38.53;17.38;;;;;;;3.52;100.00;98747.44;5043102;28;20028;-81
2020/12/21 00:15:07;;;;;;;48.50;21.48;;;;;;;3.51;100.00;98749.22;5059734;28;20449;-81
2020/12/21 00:17:34;;;;;;;46.42;19.67;;;;;;;3.59;100.00;98757.06;5051466;28;20445;-81
2020/12/21 00:19:59;;;;;;;48.78;19.50;;;;;;;3.45;100.00;98749.31;5063347;28;20028;-80
2020/12/21 00:22:25;;;;;;;61.45;24.20;;;;;;;3.48;100.00;98761.59;5054992;28;20488;-81
2020/12/21 00:24:50;;;;;;;57.83;23.10;;;;;;;3.41;100.00;98760.84;5037735;28;20024;-81
2020/12/21 00:27:16;;;;;;;64.45;25.23;;;;;;;3.42;100.00;98761.69;5046870;28;20020;-80
2020/12/21 00:29:42;;;;;;;82.60;28.90;;;;;;;3.53;100.00;98762.44;5036296;28;20065;-80
2020/12/21 00:32:07;;;;;;;134.65;42.97;;;;;;;3.57;100.00;98765.00;5034124;28;20036;-81
2020/12/21 00:34:33;;;;;;;83.97;29.13;;;;;;;3.56;100.00;98759.75;5059829;28;20032;-80
2020/12/21 00:37:17;;;;;;;63.45;19.67;;;;;;;3.53;100.00;98752.72;5046201;28;20024;-80
2020/12/21 00:39:43;;;;;;;55.55;18.52;;;;;;;3.68;100.00;98770.13;5063200;28;20158;-81
2020/12/21 00:42:08;;;;;;;51.80;19.17;;;;;;;3.58;100.00;98764.09;5055568;28;20491;-80
2020/12/21 00:44:34;;;;;;;40.75;17.33;;;;;;;3.62;100.00;98767.59;5054969;28;20032;-81
2020/12/21 00:47:00;;;;;;;40.05;16.42;;;;;;;3.69;100.00;98767.44;5055279;28;20088;-81
2020/12/21 00:49:25;;;;;;;30.83;13.95;;;;;;;3.68;100.00;98765.72;5064022;28;20036;-81
2020/12/21 00:51:51;;;;;;;33.92;14.10;;;;;;;3.72;100.00;98756.81;5046356;28;20094;-80
2020/12/21 00:54:17;;;;;;;32.80;13.25;;;;;;;3.76;100.00;98763.81;5050052;28;20032;-80
2020/12/21 00:56:42;;;;;;;33.90;14.88;;;;;;;3.75;100.00;98762.06;5060847;28;20037;-80
2020/12/21 00:59:08;;;;;;;38.40;15.80;;;;;;;3.72;100.00;98767.41;5071507;28;20024;-80
2020/12/21 01:01:34;;;;;;;36.45;14.93;;;;;;;3.67;100.00;98761.31;5055181;28;20036;-80
2020/12/21 01:04:01;;;;;;;34.03;14.43;;;;;;;3.56;100.00;98771.19;5054678;28;20117;-81
2020/12/21 01:06:27;;;;;;;38.40;16.88;;;;;;;3.44;100.00;98758.16;5054971;28;20472;-80
2020/12/21 01:08:53;;;;;;;29.92;13.98;;;;;;;3.44;100.00;98755.50;5054443;28;20472;-81
2020/12/21 01:11:18;;;;;;;27.35;12.70;;;;;;;3.38;100.00;98754.72;5055682;28;20025;-80
2020/12/21 01:13:46;;;;;;;32.05;15.60;;;;;;;3.39;100.00;98757.31;5057314;28;20116;-81
2020/12/21 01:16:12;;;;;;;33.35;15.35;;;;;;;3.43;100.00;98752.88;5050808;28;20024;-80
2020/12/21 01:18:38;;;;;;;34.60;13.30;;;;;;;3.49;100.00;98761.59;5050624;28;20029;-81
2020/12/21 01:21:03;;;;;;;29.15;13.65;;;;;;;3.52;100.00;98758.91;5066620;28;20033;-80
2020/12/21 01:23:29;;;;;;;40.15;17.05;;;;;;;3.57;100.00;98764.16;5074441;28;20032;-80
2020/12/21 01:25:55;;;;;;;41.45;17.25;;;;;;;3.42;100.00;98765.22;5057793;28;20097;-81
2020/12/21 01:28:21;;;;;;;44.55;18.15;;;;;;;3.45;100.00;98764.28;5058594;28;20056;-81
2020/12/21 01:30:46;;;;;;;46.63;18.15;;;;;;;3.46;100.00;98761.63;5090540;27;20031;-81
2020/12/21 01:33:12;;;;;;;37.25;15.40;;;;;;;3.60;100.00;98761.44;5093402;27;20027;-80
2020/12/21 01:35:39;;;;;;;35.97;15.40;;;;;;;3.60;100.00;98764.94;5093226;28;20039;-80
2020/12/21 01:38:05;;;;;;;35.38;15.27;;;;;;;3.55;100.00;98755.34;5089396;28;20035;-80
2020/12/21 01:40:31;;;;;;;40.58;17.42;;;;;;;3.59;100.00;98765.88;5095788;27;20036;-81
2020/12/21 01:42:56;;;;;;;36.47;17.02;;;;;;;3.67;100.00;98763.97;5101075;27;20117;-81
2020/12/21 01:45:22;;;;;;;36.30;16.25;;;;;;;3.62;100.00;98754.34;5087401;28;20143;-81
2020/12/21 01:47:48;;;;;;;36.90;15.48;;;;;;;3.61;100.00;98758.75;5081776;27;20028;-81
2020/12/21 01:50:14;;;;;;;35.35;15.52;;;;;;;3.63;100.00;98767.53;5088787;28;20081;-81
2020/12/21 01:52:39;;;;;;;40.72;16.83;;;;;;;3.58;100.00;98755.28;5080961;28;20134;-81
2020/12/21 01:55:06;;;;;;;33.97;14.85;;;;;;;3.57;100.00;98762.34;5100443;27;20027;-81
2020/12/21 01:57:31;;;;;;;43.08;17.75;;;;;;;3.54;100.00;98761.50;5085543;28;20110;-81
2020/12/21 01:59:57;;;;;;;34.95;14.90;;;;;;;3.48;100.00;98757.19;5091132;27;20127;-81
2020/12/21 02:02:23;;;;;;;30.13;14.20;;;;;;;3.45;100.00;98754.59;5100833;27;20026;-80
2020/12/21 02:04:48;;;;;;;27.45;13.55;;;;;;;3.45;100.00;98762.53;5084171;27;20034;-81
2020/12/21 02:07:14;;;;;;;29.95;13.95;;;;;;;3.43;100.00;98763.44;5097462;28;20402;-81
2020/12/21 02:09:40;;;;;;;28.75;13.60;;;;;;;3.29;100.00;98777.72;5090483;28;20028;-81
2020/12/21 02:12:06;;;;;;;37.13;14.82;;;;;;;3.30;100.00;98762.75;5100220;27;20031;-81
2020/12/21 02:14:32;;;;;;;29.98;13.60;;;;;;;3.33;100.00;98762.69;5101744;27;20026;-81
2020/12/21 02:16:57;;;;;;;32.95;14.75;;;;;;;3.29;100.00;98750.44;5099405;27;20110;-81
2020/12/21 02:19:23;;;;;;;38.42;15.90;;;;;;;3.35;100.00;98757.41;5080281;28;20406;-81
2020/12/21 02:21:49;;;;;;;35.15;15.20;;;;;;;3.35;100.00;98758.28;5114950;27;20045;-82
2020/12/21 02:24:14;;;;;;;30.35;13.85;;;;;;;3.31;100.00;98753.03;5080730;28;20469;-81
2020/12/21 02:26:40;;;;;;;33.05;14.02;;;;;;;3.32;100.00;98750.41;5087675;27;20031;-81
2020/12/21 02:29:06;;;;;;;26.25;13.15;;;;;;;3.31;100.00;98750.41;5117730;27;20497;-81
2020/12/21 02:31:32;;;;;;;28.52;12.40;;;;;;;3.41;100.00;98747.63;5086580;28;20035;-81
2020/12/21 02:33:58;;;;;;;29.80;14.02;;;;;;;3.41;100.00;98750.25;5088425;27;20559;-82
2020/12/21 02:36:23;;;;;;;36.72;15.18;;;;;;;3.43;100.00;98745.81;5110681;27;20034;-81
2020/12/21 02:38:52;;;;;;;26.15;12.50;;;;;;;3.30;100.00;98731.00;5091936;28;20034;-82
2020/12/21 02:41:19;;;;;;;17.80;9.95;;;;;;;3.34;100.00;98745.94;5101143;27;20146;-80
2020/12/21 02:43:45;;;;;;;19.52;9.98;;;;;;;3.39;100.00;98751.16;5091637;27;20038;-81
2020/12/21 02:46:13;;;;;;;24.10;14.07;;;;;;;3.18;100.00;98737.34;5088495;27;20027;-81
2020/12/21 02:48:39;;;;;;;26.17;13.50;;;;;;;3.23;100.00;98754.00;5088465;28;20055;-81
2020/12/21 02:51:05;;;;;;;33.90;13.32;;;;;;;3.35;100.00;98755.63;5079477;28;20054;-81
2020/12/21 02:53:30;;;;;;;27.52;14.38;;;;;;;3.34;100.00;98748.59;5093534;27;20574;-81
2020/12/21 02:55:56;;;;;;;27.50;13.63;;;;;;;3.36;100.00;98745.91;5090605;28;20042;-81
2020/12/21 02:58:22;;;;;;;27.00;13.52;;;;;;;3.33;100.00;98746.84;5088070;28;20038;-81
2020/12/21 03:00:47;;;;;;;27.48;13.73;;;;;;;3.33;100.00;98741.53;5087487;28;20424;-81
2020/12/21 03:03:14;;;;;;;30.08;13.65;;;;;;;3.32;100.00;98749.50;5096309;28;20038;-82
2020/12/21 03:05:40;;;;;;;32.28;15.57;;;;;;;3.37;100.00;98748.53;5085936;27;20080;-82
2020/12/21 03:08:06;;;;;;;26.27;13.82;;;;;;;3.36;100.00;98752.06;5080878;28;20046;-82
2020/12/21 03:10:32;;;;;;;27.77;13.65;;;;;;;3.34;100.00;98761.81;5093594;27;20023;-81
2020/12/21 03:12:58;;;;;;;24.52;12.52;;;;;;;3.47;100.00;98744.88;5108196;27;20028;-82
2020/12/21 03:15:24;;;;;;;24.98;12.65;;;;;;;3.44;100.00;98760.78;5095287;28;20027;-81
2020/12/21 03:17:49;;;;;;;24.77;13.52;;;;;;;3.42;100.00;98757.28;5079927;28;20505;-81
2020/12/21 03:20:15;;;;;;;32.08;14.65;;;;;;;3.41;100.00;98758.19;5096759;28;20037;-81
2020/12/21 03:22:41;;;;;;;21.88;10.60;;;;;;;3.44;100.00;98760.78;5104633;28;20058;-81
2020/12/21 03:25:07;;;;;;;22.02;10.93;;;;;;;3.47;100.00;98759.88;5088566;27;20107;-82
2020/12/21 03:27:33;;;;;;;24.65;11.40;;;;;;;3.43;100.00;98764.31;5090911;27;20114;-81
2020/12/21 03:29:58;;;;;;;25.30;13.13;;;;;;;3.43;100.00;98748.47;5107537;27;20504;-84
2020/12/21 03:32:24;;;;;;;23.20;13.07;;;;;;;3.39;100.00;98743.22;5087002;28;20134;-81
2020/12/21 03:34:52;;;;;;;24.67;13.48;;;;;;;3.40;100.00;98747.63;5078738;28;20052;-81
2020/12/21 03:37:18;;;;;;;24.48;12.40;;;;;;;3.61;100.00;98750.84;5088347;27;20113;-81
2020/12/21 03:39:44;;;;;;;29.55;13.73;;;;;;;3.47;100.00;98757.22;5085397;27;20533;-81
2020/12/21 03:42:09;;;;;;;33.08;17.25;;;;;;;3.42;100.00;98753.75;5089665;28;20410;-82
2020/12/21 03:44:35;;;;;;;35.50;18.42;;;;;;;3.42;100.00;98753.75;5083834;27;20041;-82
2020/12/21 03:47:00;;;;;;;27.25;13.55;;;;;;;3.43;100.00;98755.50;5090221;27;20247;-83
2020/12/21 03:49:26;;;;;;;26.17;13.48;;;;;;;3.46;100.00;98768.69;5098836;27;20487;-81
2020/12/21 03:51:52;;;;;;;24.55;12.73;;;;;;;3.40;100.00;98756.44;5091692;28;20019;-81
2020/12/21 03:54:17;;;;;;;29.02;13.23;;;;;;;3.40;100.00;98756.44;5088749;27;20023;-82
2020/12/21 03:56:44;;;;;;;22.10;13.48;;;;;;;3.43;100.00;98753.75;5092770;28;20436;-81
2020/12/21 03:59:12;;;;;;;25.80;13.48;;;;;;;3.40;100.00;98753.78;5095303;27;20084;-81
2020/12/21 04:01:38;;;;;;;28.40;14.45;;;;;;;3.38;100.00;98749.44;5083484;27;20023;-81
2020/12/21 04:04:07;;;;;;;35.00;14.77;;;;;;;3.45;100.00;98756.34;5081452;28;20108;-81
2020/12/21 04:06:34;;;;;;;27.02;12.85;;;;;;;3.37;100.00;98759.13;5091379;27;20392;-81
2020/12/21 04:08:59;;;;;;;31.17;14.38;;;;;;;3.45;100.00;98759.00;5091114;28;20027;-82
2020/12/21 04:11:25;;;;;;;27.67;13.32;;;;;;;3.39;100.00;98756.44;5086814;28;20026;-81
2020/12/21 04:13:54;;;;;;;27.20;12.70;;;;;;;3.27;100.00;98749.56;5087003;28;20055;-81
2020/12/21 04:16:20;;;;;;;31.98;13.48;;;;;;;3.24;100.00;98741.66;5104812;28;20035;-82
2020/12/21 04:18:45;;;;;;;28.40;12.55;;;;;;;3.34;100.00;98750.34;5085780;27;20504;-82
2020/12/21 04:21:11;;;;;;;27.83;12.20;;;;;;;3.31;100.00;98748.63;5090321;27;21044;-81
2020/12/21 04:23:37;;;;;;;26.02;12.55;;;;;;;3.33;100.00;98753.88;5087437;28;20035;-81
2020/12/21 04:26:04;;;;;;;24.52;12.10;;;;;;;3.41;100.00;98749.38;5087810;28;20110;-80
2020/12/21 04:28:30;;;;;;;20.73;11.18;;;;;;;3.38;100.00;98742.38;5078227;28;20030;-80
2020/12/21 04:30:55;;;;;;;25.17;11.13;;;;;;;3.31;100.00;98743.34;5103770;28;20011;-80
2020/12/21 04:33:21;;;;;;;25.25;12.38;;;;;;;3.35;100.00;98738.91;5106178;27;20027;-80
2020/12/21 04:35:47;;;;;;;26.15;11.52;;;;;;;3.38;100.00;98742.38;5093535;28;20051;-80
2020/12/21 04:38:12;;;;;;;22.15;12.60;;;;;;;3.35;100.00;98729.19;5086828;28;20028;-81
2020/12/21 04:40:38;;;;;;;28.65;14.02;;;;;;;3.34;100.00;98727.44;5090658;28;20023;-80
2020/12/21 04:43:05;;;;;;;26.48;12.93;;;;;;;3.41;100.00;98736.16;5099251;28;20033;-80
2020/12/21 04:45:32;;;;;;;27.00;15.00;;;;;;;3.36;100.00;98735.34;5105248;27;20513;-81
2020/12/21 04:47:57;;;;;;;23.30;12.48;;;;;;;3.29;100.00;98726.66;5115274;27;20019;-81
2020/12/21 04:50:30;;;;;;;26.33;14.88;;;;;;;3.31;100.00;98724.84;5095176;27;20111;-81
2020/12/21 04:52:57;;;;;;;25.70;12.93;;;;;;;3.31;100.00;98735.41;5094826;27;20035;-80
2020/12/21 04:55:24;;;;;;;27.25;14.23;;;;;;;3.26;100.00;98734.63;5093055;28;20032;-80
2020/12/21 04:58:04;;;;;;;30.52;15.90;;;;;;;3.23;100.00;98734.66;5097301;27;20046;-81
2020/12/21 05:00:32;;;;;;;42.78;19.73;;;;;;;3.22;100.00;98727.63;5094721;27;20096;-81
2020/12/21 05:02:58;;;;;;;37.05;18.63;;;;;;;3.31;100.00;98738.06;5094224;27;20027;-80
2020/12/21 05:05:38;;;;;;;32.10;17.00;;;;;;;3.31;100.00;98747.75;5094160;27;20039;-80
2020/12/21 05:08:24;;;;;;;45.25;21.33;;;;;;;3.14;100.00;98740.91;5095581;28;20047;-81
2020/12/21 05:11:04;;;;;;;40.47;19.73;;;;;;;3.23;100.00;98747.88;5095676;27;20026;-80
2020/12/21 05:13:33;;;;;;;51.95;24.75;;;;;;;3.32;100.00;98752.16;5091125;27;20023;-80
2020/12/21 05:16:00;;;;;;;44.00;22.45;;;;;;;3.33;100.00;98741.53;5096701;27;20073;-80
2020/12/21 05:18:27;;;;;;;46.45;23.27;;;;;;;3.38;100.00;98744.13;5093107;27;20351;-80
2020/12/21 05:21:01;;;;;;;42.00;21.90;;;;;;;3.46;100.00;98750.19;5088038;28;20035;-80
2020/12/21 05:23:27;;;;;;;43.67;19.52;;;;;;;3.38;100.00;98742.38;5081845;28;20027;-81
2020/12/21 05:26:26;;;;;;;34.10;17.35;;;;;;;3.35;100.00;98754.75;5099038;28;20313;-76
2020/12/21 05:28:51;;;;;;;33.70;17.05;;;;;;;3.47;100.00;98755.47;5063946;27;20046;-80
2020/12/21 05:31:17;;;;;;;39.00;17.90;;;;;;;3.40;100.00;98751.16;5085270;28;20027;-81
2020/12/21 05:33:44;;;;;;;31.95;14.98;;;;;;;3.46;100.00;98756.34;5089958;28;20112;-80
2020/12/21 05:36:12;;;;;;;36.75;16.73;;;;;;;3.42;100.00;98759.03;5104603;27;20034;-82
2020/12/21 05:38:38;;;;;;;35.92;17.92;;;;;;;3.35;100.00;98758.28;5100725;27;20054;-81
2020/12/21 05:41:19;;;;;;;34.10;15.20;;;;;;;3.38;100.00;98750.31;5086065;28;20114;-81
2020/12/21 05:43:46;;;;;;;31.38;15.88;;;;;;;3.40;100.00;98753.78;5089825;28;20116;-81
2020/12/21 05:46:30;;;;;;;24.55;12.32;;;;;;;3.38;100.00;98760.00;5089163;28;20023;-81
2020/12/21 05:48:57;;;;;;;30.95;14.32;;;;;;;3.22;100.00;98748.75;5102687;28;20023;-81
2020/12/21 05:51:36;;;;;;;24.90;12.65;;;;;;;3.31;100.00;98755.69;5078659;27;20465;-81
2020/12/21 05:54:06;;;;;;;24.83;11.73;;;;;;;3.32;100.00;98749.50;5085246;28;20050;-81
2020/12/21 05:56:33;;;;;;;29.60;14.05;;;;;;;3.21;100.00;98752.28;5078435;28;20410;-82
2020/12/21 05:59:00;;;;;;;23.83;12.80;;;;;;;3.27;100.00;98765.44;5088818;27;20038;-81
2020/12/21 06:01:26;;;;;;;30.85;14.32;;;;;;;3.32;100.00;98750.41;5107128;27;20078;-81
2020/12/21 06:04:00;;;;;;;34.47;19.67;;;;;;;3.38;100.00;98758.25;5088632;28;20498;-80
2020/12/21 06:06:28;;;;;;;35.65;16.80;;;;;;;3.38;100.00;98750.31;5084646;27;20038;-81
2020/12/21 06:09:01;;;;;;;29.70;14.45;;;;;;;3.38;100.00;98760.88;5080523;27;20028;-81
2020/12/21 06:11:28;;;;;;;29.88;15.82;;;;;;;3.37;100.00;98759.13;5110692;27;20022;-80
2020/12/21 06:14:08;;;;;;;25.67;14.15;;;;;;;3.42;100.00;98756.41;5091981;27;20055;-80
2020/12/21 06:16:37;;;;;;;28.40;15.43;;;;;;;3.38;100.00;98755.59;5094228;27;20130;-80
2020/12/21 06:19:11;;;;;;;37.50;20.38;;;;;;;3.43;100.00;98759.03;5079385;28;20038;-80
2020/12/21 06:21:43;;;;;;;39.08;18.55;;;;;;;3.37;100.00;98759.13;5106660;28;20034;-81
2020/12/21 06:24:20;;;;;;;34.45;17.67;;;;;;;3.31;100.00;98761.84;5086785;27;20114;-81
2020/12/21 06:26:46;;;;;;;24.05;13.10;;;;;;;3.38;100.00;98757.34;5099733;28;20067;-81
2020/12/21 06:29:20;;;;;;;22.80;14.25;;;;;;;3.41;100.00;98763.50;5090890;28;20580;-81
2020/12/21 06:31:46;;;;;;;27.83;14.90;;;;;;;3.45;100.00;98764.28;5085778;28;20034;-81
2020/12/21 06:34:17;;;;;;;29.88;14.38;;;;;;;3.44;100.00;98766.09;5094108;28;20024;-83
2020/12/21 06:36:47;;;;;;;28.40;16.17;;;;;;;3.27;100.00;98731.06;5107694;28;20416;-80
2020/12/21 06:39:48;;;;;;;37.65;20.70;;;;;;;3.34;100.00;98748.59;5082196;28;20529;-83
2020/12/21 06:42:21;;;;;;;41.67;22.05;;;;;;;3.20;100.00;98722.34;5080553;28;20576;-80
2020/12/21 06:44:49;;;;;;;36.55;20.65;;;;;;;3.23;100.00;98718.78;5079700;28;20109;-81
2020/12/21 06:47:17;;;;;;;29.27;17.45;;;;;;;3.27;100.00;98726.66;5078291;28;20020;-75
2020/12/21 06:49:43;;;;;;;25.50;13.20;;;;;;;3.56;100.00;98760.63;5087053;28;20428;-75
2020/12/21 06:52:09;;;;;;;28.45;13.05;;;;;;;3.53;100.00;98755.38;5078658;28;20026;-74
2020/12/21 06:54:34;;;;;;;24.17;13.27;;;;;;;3.77;100.00;98762.94;5089264;28;20052;-73
2020/12/21 06:57:00;;;;;;;21.33;11.93;;;;;;;3.73;100.00;98769.16;5074419;28;20149;-77
2020/12/21 06:59:27;;;;;;;26.23;13.93;;;;;;;3.55;100.00;98753.56;5087654;28;20031;-78
2020/12/21 07:02:00;;;;;;;42.20;22.88;;;;;;;3.52;100.00;98752.72;5096760;28;20024;-81
2020/12/21 07:04:30;;;;;;;30.52;16.02;;;;;;;3.55;100.00;98764.16;5107484;28;20410;-82
2020/12/21 07:06:57;;;;;;;34.47;19.83;;;;;;;3.52;100.00;98761.53;5089063;28;20395;-81
2020/12/21 07:09:27;;;;;;;43.13;25.75;;;;;;;3.39;100.00;98754.69;5085970;28;20047;-82
2020/12/21 07:12:00;;;;;;;41.22;22.02;;;;;;;3.50;100.00;98752.78;5090131;28;20455;-81
2020/12/21 07:14:31;;;;;;;35.08;18.38;;;;;;;3.41;100.00;98738.81;5090385;28;20391;-82
2020/12/21 07:17:54;;;;;;;35.80;20.98;;;;;;;3.60;100.00;98770.22;5091407;28;20047;-83
2020/12/21 07:23:52;;;;;;;56.30;29.92;;;;;;;3.12;100.00;98703.06;5098551;28;20034;-83
2020/12/21 07:26:27;;;;;;;32.70;18.90;;;;;;;3.28;100.00;98725.75;5090012;28;20046;-84
2020/12/21 07:29:07;;;;;;;;;;;;;;;;;;;;;
2020/12/21 07:31:42;;;;;;;28.98;16.10;;;;;;;3.52;100.00;98732.47;5100507;27;20143;-82
2020/12/21 07:34:11;;;;;;;26.52;13.98;;;;;;;3.64;100.00;98747.25;5095354;28;20027;-83
2020/12/21 07:36:49;;;;;;;19.88;11.93;;;;;;;3.56;100.00;98731.53;5095612;27;20118;-79
2020/12/21 07:39:31;;;;;;;18.73;10.80;;;;;;;3.77;100.00;98768.22;5091514;27;20031;-83
2020/12/21 07:42:15;;;;;;;24.20;12.20;;;;;;;3.52;100.00;98713.06;5093756;27;20032;-83
2020/12/21 07:44:59;;;;;;;26.77;13.80;;;;;;;3.84;100.00;98756.63;5075108;27;20131;-82
2020/12/21 07:47:29;;;;;;;19.27;11.43;;;;;;;3.75;100.00;98740.91;5101222;27;20053;-82
2020/12/21 07:49:56;;;;;;;25.50;12.93;;;;;;;4.00;100.00;98765.19;5086555;28;20031;-83
2020/12/21 07:52:23;;;;;;;24.85;13.68;;;;;;;4.20;100.00;98776.34;5097403;28;20023;-81
2020/12/21 07:54:49;;;;;;;20.10;12.25;;;;;;;4.06;100.00;98756.31;5096859;28;20003;-73
2020/12/21 07:57:18;;;;;;;28.90;14.15;;;;;;;4.15;100.00;98772.88;5100782;27;20041;-82
2020/12/21 07:59:58;;;;;;;33.65;16.50;;;;;;;3.95;100.00;98745.88;5090230;27;20445;-83
2020/12/21 08:02:27;;;;;;;32.00;17.55;;;;;;;3.99;100.00;98760.81;5082900;28;20490;-84
2020/12/21 08:04:53;;;;;;;31.45;16.58;;;;;;;4.06;100.00;98756.31;5082205;28;20059;-82
2020/12/21 08:07:26;;;;;;;24.08;12.20;;;;;;;3.96;100.00;98729.13;5082776;27;20027;-82
2020/12/21 08:09:55;;;;;;;15.13;8.05;;;;;;;4.11;100.00;98741.22;5116653;28;20471;-82
2020/12/21 08:12:26;;;;;;;13.43;7.55;;;;;;;4.09;100.00;98740.38;5094074;28;20027;-83
2020/12/21 08:15:21;;;;;;;18.88;9.77;;;;;;;4.17;100.00;98738.44;5090722;28;20501;-84
2020/12/21 08:17:55;;;;;;;23.40;12.52;;;;;;;4.04;100.00;98726.31;5079614;28;20410;-85
2020/12/21 08:20:44;;;;;;;24.35;13.88;;;;;;;4.03;100.00;98709.56;5092477;28;20034;-85
2020/12/21 08:23:12;;;;;;;19.02;11.00;;;;;;;4.15;100.00;98737.63;5112008;27;20034;-84
2020/12/21 08:25:41;;;;;;;31.58;15.65;;;;;;;4.35;100.00;98783.16;5100662;27;20054;-83
2020/12/21 08:28:10;;;;;;;43.33;21.58;;;;;;;4.07;100.00;98758.03;5099545;27;20027;-84
2020/12/21 08:30:42;;;;;;;45.28;26.70;;;;;;;3.88;100.00;98731.00;5085435;28;20072;-84
2020/12/21 08:33:14;;;;;;;33.83;14.68;;;;;;;4.15;100.00;98758.81;5085254;28;20035;-83
2020/12/21 08:35:43;;;;;;;;;;;;;;;4.43;100.00;98783.03;5078264;28;20039;-83
2020/12/21 08:38:47;;;;;;;27.05;14.27;;;;;;;4.28;100.00;98739.13;5112798;28;19911;-85
2020/12/21 08:42:10;;;;;;;24.80;13.45;;;;;;;4.65;100.00;98772.00;5007548;28;20121;-86
2020/12/21 08:51:25;;;;;;;;;;;;;;;;;;;;;
2020/12/21 08:57:36;;;;;;;17.67;11.05;;;;;;;4.86;97.79;98758.31;4953753;29;20082;-83
2020/12/21 09:00:07;;;;;;;21.58;12.95;;;;;;;4.82;98.09;98719.53;5015935;28;20144;-83
2020/12/21 09:02:45;;;;;;;71.40;31.80;;;;;;;5.05;95.50;98710.22;5063587;28;20040;-83
2020/12/21 09:05:40;;;;;;;21.95;10.98;;;;;;;5.29;96.44;98746.84;5080574;28;20024;-83
2020/12/21 09:08:32;;;;;;;61.50;31.15;;;;;;;5.27;91.99;98708.84;5107934;28;20087;-83
2020/12/21 09:10:58;;;;;;;26.98;13.80;;;;;;;5.73;91.89;98751.13;5061751;28;20118;-84
2020/12/21 09:13:23;;;;;;;30.58;16.20;;;;;;;5.74;92.04;98713.94;5092965;28;20051;-84
2020/12/21 09:15:55;;;;;;;30.40;16.50;;;;;;;5.58;90.78;98688.69;5077215;28;20035;-84
2020/12/21 09:18:21;;;;;;;36.03;18.58;;;;;;;5.73;91.79;98700.69;5091032;28;20439;-83
2020/12/21 09:20:47;;;;;;;37.35;19.92;;;;;;;6.04;90.57;98744.22;5109717;28;20043;-84
2020/12/21 09:23:12;;;;;;;31.25;15.80;;;;;;;6.20;89.71;98712.81;5074830;28;20019;-82
2020/12/21 09:25:38;;;;;;;16.70;9.18;;;;;;;6.21;88.08;98725.22;5092066;28;20047;-83
2020/12/21 09:28:04;;;;;;;19.55;11.45;;;;;;;6.24;87.78;98739.28;5095240;28;20122;-82
2020/12/21 09:30:30;;;;;;;21.50;10.88;;;;;;;6.36;86.51;98714.19;5068762;28;20098;-82
2020/12/21 09:32:56;;;;;;;15.02;10.02;;;;;;;6.43;83.37;98705.09;5056910;28;20123;-82
2020/12/21 09:35:22;;;;;;;15.60;10.02;;;;;;;6.49;84.11;98720.91;5076438;28;20056;-82
2020/12/21 09:38:05;;;;;;;16.05;8.73;;;;;;;6.30;84.93;98715.22;5058425;28;20491;-82
2020/12/21 09:40:37;;;;;;;17.33;10.10;;;;;;;6.04;86.23;98695.53;5061863;28;20373;-84
2020/12/21 09:43:02;;;;;;;23.90;13.13;;;;;;;5.62;88.72;98690.34;5075677;28;20438;-72
2020/12/21 09:46:04;;;;;;;24.15;13.73;;;;;;;5.50;91.63;98706.56;5077324;28;20065;-84
2020/12/21 09:48:32;;;;;;;31.05;17.75;;;;;;;5.47;89.90;98680.09;5078574;28;20067;-83
2020/12/21 09:51:00;;;;;;;26.02;13.45;;;;;;;5.40;91.57;98695.28;5059311;28;20027;-84
2020/12/21 09:53:32;;;;;;;33.40;17.15;;;;;;;5.07;93.96;98666.00;5059730;28;20035;-83
2020/12/21 09:55:58;;;;;;;36.53;21.25;;;;;;;5.29;93.68;98697.28;5060005;28;20025;-83
2020/12/21 09:58:44;;;;;;;39.05;19.25;;;;;;;5.31;94.47;98698.16;5068564;28;20051;-84
2020/12/21 10:01:13;;;;;;;40.30;15.20;;;;;;;5.26;93.75;98662.03;5050880;28;20082;-82
2020/12/21 10:03:41;;;;;;;61.13;25.10;;;;;;;5.72;92.83;98723.72;5052902;28;20098;-84
2020/12/21 10:06:11;;;;;;;46.78;21.35;;;;;;;5.44;92.25;98699.59;5048407;28;20028;-82
2020/12/21 10:08:42;;;;;;;28.73;15.65;;;;;;;5.59;91.08;98701.03;5045265;28;20025;-83
2020/12/21 10:11:08;;;;;;;30.10;15.43;;;;;;;5.74;91.73;98708.63;5058105;28;20035;-84
2020/12/21 10:13:35;;;;;;;26.90;14.73;;;;;;;5.81;91.76;98706.72;5059669;28;20096;-80
2020/12/21 10:16:00;;;;;;;30.88;17.45;;;;;;;5.82;91.57;98714.63;5058064;28;20411;-83
2020/12/21 10:18:27;;;;;;;23.52;12.38;;;;;;;5.72;92.61;98710.44;5058865;28;20033;-82
2020/12/21 10:20:52;;;;;;;15.30;9.07;;;;;;;5.81;90.06;98720.00;5058866;28;20135;-83
2020/12/21 10:23:18;;;;;;;23.95;12.40;;;;;;;5.37;91.21;98697.13;5058656;28;20032;-83
2020/12/21 10:25:44;;;;;;;19.50;11.18;;;;;;;5.25;91.51;98690.34;5058119;28;20511;-84
2020/12/21 10:28:09;;;;;;;21.60;11.73;;;;;;;5.45;90.96;98679.25;5058369;28;20471;-84
2020/12/21 10:30:35;;;;;;;19.33;10.52;;;;;;;5.61;92.89;98698.34;5070621;28;20036;-83
2020/12/21 10:33:01;;;;;;;19.77;10.35;;;;;;;5.57;93.34;98683.41;5041686;28;20020;-81
2020/12/21 10:35:27;;;;;;;19.08;10.77;;;;;;;5.47;91.96;98688.91;5048800;28;20032;-84
2020/12/21 10:38:01;;;;;;;19.25;11.52;;;;;;;5.44;92.96;98682.84;5048963;28;20028;-81
2020/12/21 10:40:27;;;;;;;34.45;17.30;;;;;;;5.36;92.41;98680.34;5075337;28;20028;-82
2020/12/21 10:42:53;;;;;;;16.00;9.43;;;;;;;5.15;92.34;98654.31;5055748;28;20098;-81
2020/12/21 10:45:22;;;;;;;17.23;8.40;;;;;;;5.38;93.22;98689.13;5074669;28;20028;-81
2020/12/21 10:47:47;;;;;;;22.05;11.00;;;;;;;5.15;92.78;98662.28;5044878;28;20423;-81
2020/12/21 10:50:13;;;;;;;28.02;14.23;;;;;;;5.46;93.59;98678.34;5052658;28;20028;-82
2020/12/21 10:52:39;;;;;;;14.85;7.70;;;;;;;5.51;91.87;98662.34;5074608;28;20024;-81
2020/12/21 10:55:05;;;;;;;18.83;10.05;;;;;;;5.60;91.42;98664.78;5058028;28;20028;-81
2020/12/21 10:57:33;;;;;;;52.40;20.92;;;;;;;5.49;90.74;98633.16;5057383;28;20024;-83
2020/12/21 11:00:34;;;;;;;63.55;25.55;;;;;;;5.84;90.21;98686.28;5058577;28;20031;-84
2020/12/21 11:03:45;;;;;;;31.48;14.75;;;;;;;5.59;90.47;98695.75;5055673;28;20505;-84
2020/12/21 11:07:03;;;;;;;;;;;;;;;;;;;;;
2020/12/21 11:10:05;;;;;;;20.30;11.20;;;;;;;5.51;92.45;98665.84;5073369;28;20088;-83
2020/12/21 11:12:30;;;;;;;50.17;19.13;;;;;;;5.30;93.26;98647.78;5057952;28;20040;-81
2020/12/21 11:15:05;;;;;;;22.75;10.93;;;;;;;5.35;93.24;98689.19;5075316;28;20043;-84
2020/12/21 11:17:30;;;;;;;12.65;6.95;;;;;;;5.32;92.75;98683.13;5054806;28;20124;-83
2020/12/21 11:19:58;;;;;;;17.90;10.77;;;;;;;5.25;93.68;98686.81;5057125;28;20550;-82
2020/12/21 11:22:23;;;;;;;15.95;8.75;;;;;;;5.03;94.93;98669.63;5073049;28;20037;-80
2020/12/21 11:24:49;;;;;;;14.25;8.05;;;;;;;4.86;95.41;98662.91;5073370;28;20671;-82
2020/12/21 11:27:18;;;;;;;14.90;7.97;;;;;;;5.05;95.53;98671.31;5051644;28;20025;-82
2020/12/21 11:29:46;;;;;;;18.25;8.98;;;;;;;4.86;96.10;98662.06;5047745;28;20045;-81
2020/12/21 11:32:12;;;;;;;12.45;7.00;;;;;;;4.70;95.59;98650.91;5069789;28;20488;-83
2020/12/21 11:34:38;;;;;;;15.88;9.10;;;;;;;4.53;97.07;98647.69;5045652;28;20056;-82
2020/12/21 11:37:03;;;;;;;13.73;8.38;;;;;;;4.66;97.34;98643.91;5045435;28;20033;-82
2020/12/21 11:39:29;;;;;;;12.25;6.60;;;;;;;4.79;96.47;98657.78;5046713;28;20057;-82
2020/12/21 11:41:55;;;;;;;11.93;6.22;;;;;;;5.05;95.94;98689.00;5074034;28;20020;-82
2020/12/21 11:44:24;;;;;;;20.33;8.70;;;;;;;5.00;94.67;98651.13;5056568;28;20079;-82
2020/12/21 11:46:49;;;;;;;15.88;8.50;;;;;;;5.05;95.27;98646.59;5065648;28;20029;-81
2020/12/21 11:49:15;;;;;;;15.73;9.85;;;;;;;4.85;93.69;98650.56;5074313;28;20507;-82